Time;durP1;ratioP1;P1;durP2;ratioP2;P2;SDS_P1;SDS_P2;PMS_P1;PMS_P2;Temp;Humidity;BMP_temperature;BMP_pressure;BME280_temperature;BME280_humidity;BME280_pressure;Samples;Min_cycle;Max_cycle;Signal;HPM_P1;HPM_P2
2022/04/01 00:00:57;;;;;;;37.57;9.83;;;;;;;;;;5082757;28;20184;-73
2022/04/01 00:03:22;;;;;;;6.63;4.17;;;;;;;;;;5085784;28;20174;-72
2022/04/01 00:05:48;;;;;;;19.40;7.57;;;;;;;;;;5081888;28;20239;-73
2022/04/01 00:08:13;;;;;;;17.93;6.83;;;;;;;;;;5082543;28;20238;-73
2022/04/01 00:10:38;;;;;;;6.70;5.10;;;;;;;;;;5081218;28;20186;-73
2022/04/01 00:13:04;;;;;;;13.83;8.40;;;;;;;;;;5084758;28;20190;-73
2022/04/01 00:15:29;;;;;;;19.57;12.23;;;;;;;;;;5083555;28;20273;-72
2022/04/01 00:17:56;;;;;;;11.53;7.20;;;;;;;;;;5085975;28;20258;-73
2022/04/01 00:20:21;;;;;;;17.40;10.33;;;;;;;;;;5080778;28;20204;-73
2022/04/01 00:22:46;;;;;;;23.00;8.80;;;;;;;;;;5083483;28;20172;-72
2022/04/01 00:25:11;;;;;;;24.93;10.93;;;;;;;;;;5084850;28;20181;-73
2022/04/01 00:27:37;;;;;;;12.47;6.63;;;;;;;;;;5088846;28;20212;-72
2022/04/01 00:30:03;;;;;;;7.63;5.27;;;;;;;;;;5082806;28;20191;-73
2022/04/01 00:32:28;;;;;;;13.40;6.80;;;;;;;;;;5089345;28;20185;-73
2022/04/01 00:34:54;;;;;;;19.43;7.60;;;;;;;;;;5085905;28;20186;-72
2022/04/01 00:37:19;;;;;;;8.63;7.13;;;;;;;;;;5086406;28;20174;-72
2022/04/01 00:39:44;;;;;;;22.10;10.70;;;;;;;;;;5084675;28;20287;-72
2022/04/01 00:42:09;;;;;;;19.37;9.37;;;;;;;;;;5088015;28;20174;-72
2022/04/01 00:44:37;;;;;;;17.33;6.50;;;;;;;;;;5084173;28;20259;-72
2022/04/01 00:47:03;;;;;;;15.00;8.37;;;;;;;;;;5092535;28;20202;-72
2022/04/01 00:49:29;;;;;;;24.30;9.97;;;;;;;;;;5080886;28;20181;-73
2022/04/01 00:52:00;;;;;;;24.63;11.03;;;;;;;;;;5083471;28;20185;-73
2022/04/01 00:54:26;;;;;;;28.83;9.90;;;;;;;;;;5091446;28;20207;-73
2022/04/01 00:56:52;;;;;;;13.80;6.43;;;;;;;;;;5085891;28;20213;-72
2022/04/01 00:59:17;;;;;;;28.60;9.97;;;;;;;;;;5086751;28;20201;-72
2022/04/01 01:01:47;;;;;;;60.73;10.77;;;;;;;;;;5087141;28;20207;-72
2022/04/01 01:04:13;;;;;;;64.40;10.00;;;;;;;;;;5086974;28;20238;-73
2022/04/01 01:06:41;;;;;;;61.87;11.77;;;;;;;;;;5086841;28;20187;-73
2022/04/01 01:09:06;;;;;;;15.73;5.80;;;;;;;;;;5090122;28;20173;-72
2022/04/01 01:11:32;;;;;;;54.03;10.17;;;;;;;;;;5083648;28;20306;-73
2022/04/01 01:13:57;;;;;;;6.13;5.20;;;;;;;;;;5089290;28;20232;-73
2022/04/01 01:16:22;;;;;;;13.93;5.33;;;;;;;;;;5088999;28;20207;-73
2022/04/01 01:19:07;;;;;;;4.63;3.50;;;;;;;;;;5083372;28;20209;-73
2022/04/01 01:21:32;;;;;;;21.23;6.07;;;;;;;;;;5082368;28;20174;-73
2022/04/01 01:23:59;;;;;;;68.00;9.70;;;;;;;;;;5093828;28;20187;-72
2022/04/01 01:26:24;;;;;;;62.93;11.07;;;;;;;;;;5089277;28;20187;-73
2022/04/01 01:28:50;;;;;;;12.43;5.57;;;;;;;;;;5095608;28;20184;-72
2022/04/01 01:31:16;;;;;;;9.47;4.93;;;;;;;;;;5091968;28;21824;-72
2022/04/01 01:33:43;;;;;;;21.60;5.40;;;;;;;;;;5095590;28;20175;-73
2022/04/01 01:36:09;;;;;;;154.77;14.70;;;;;;;;;;5089292;28;20247;-72
2022/04/01 01:38:35;;;;;;;139.17;14.20;;;;;;;;;;5087983;28;20169;-72
2022/04/01 01:41:02;;;;;;;35.83;7.07;;;;;;;;;;5085484;28;20176;-73
2022/04/01 01:43:27;;;;;;;98.90;11.97;;;;;;;;;;5088707;28;20191;-72
2022/04/01 01:45:52;;;;;;;116.97;10.83;;;;;;;;;;5088239;28;20177;-72
2022/04/01 01:48:18;;;;;;;50.83;8.43;;;;;;;;;;5095933;28;20171;-73
2022/04/01 01:56:11;;;;;;;201.80;13.93;;;;;;;;;;5082194;28;20469;-73
2022/04/01 01:58:36;;;;;;;9.07;4.20;;;;;;;;;;5090721;28;20173;-72
2022/04/01 02:01:01;;;;;;;49.60;6.97;;;;;;;;;;5088238;28;20283;-72
2022/04/01 02:03:26;;;;;;;19.90;5.83;;;;;;;;;;5088297;28;20173;-72
2022/04/01 02:05:51;;;;;;;183.23;15.57;;;;;;;;;;5084718;28;20211;-72
2022/04/01 02:08:17;;;;;;;21.90;4.63;;;;;;;;;;5086890;28;20284;-72
2022/04/01 02:10:42;;;;;;;113.43;9.87;;;;;;;;;;5085642;28;20259;-72
2022/04/01 02:13:07;;;;;;;7.00;3.83;;;;;;;;;;5087615;28;20200;-72
2022/04/01 02:15:33;;;;;;;138.63;12.97;;;;;;;;;;5082818;28;20257;-72
2022/04/01 02:17:58;;;;;;;117.27;13.00;;;;;;;;;;5097400;28;20176;-72
2022/04/01 02:20:24;;;;;;;58.87;10.50;;;;;;;;;;5086744;28;20247;-72
2022/04/01 02:22:49;;;;;;;24.67;7.57;;;;;;;;;;5101226;28;20180;-73
2022/04/01 02:25:14;;;;;;;36.58;7.13;;;;;;;;;;5086264;28;20179;-72
2022/04/01 02:27:39;;;;;;;12.00;3.93;;;;;;;;;;5086144;28;20196;-72
2022/04/01 02:30:10;;;;;;;77.93;7.80;;;;;;;;;;5086870;28;20177;-72
2022/04/01 02:32:37;;;;;;;7.37;5.07;;;;;;;;;;5091324;28;20243;-72
2022/04/01 02:35:04;;;;;;;10.63;4.20;;;;;;;;;;5088072;28;20177;-72
2022/04/01 02:37:29;;;;;;;22.63;4.93;;;;;;;;;;5091963;28;20181;-72
2022/04/01 02:39:55;;;;;;;69.30;9.17;;;;;;;;;;5085937;28;20196;-72
2022/04/01 02:42:20;;;;;;;42.47;7.07;;;;;;;;;;5085030;28;20241;-73
2022/04/01 02:44:45;;;;;;;23.87;4.03;;;;;;;;;;5078941;28;20172;-72
2022/04/01 02:47:11;;;;;;;134.73;12.60;;;;;;;;;;5088996;28;20210;-72
2022/04/01 02:49:36;;;;;;;170.97;13.37;;;;;;;;;;5085551;28;20181;-72
2022/04/01 02:52:02;;;;;;;43.27;8.30;;;;;;;;;;5085647;28;21737;-72
2022/04/01 02:54:27;;;;;;;194.53;17.10;;;;;;;;;;5087566;28;20213;-72
2022/04/01 02:56:52;;;;;;;60.93;10.30;;;;;;;;;;5082295;28;20174;-72
2022/04/01 02:59:17;;;;;;;27.77;9.80;;;;;;;;;;5088042;28;20197;-72
2022/04/01 03:01:42;;;;;;;5.53;4.27;;;;;;;;;;5077427;28;20315;-72
2022/04/01 03:04:09;;;;;;;3.63;2.60;;;;;;;;;;5087581;28;20189;-72
2022/04/01 03:06:34;;;;;;;51.87;10.80;;;;;;;;;;5083304;28;20173;-72
2022/04/01 03:09:00;;;;;;;85.10;9.50;;;;;;;;;;5090392;28;20173;-72
2022/04/01 03:11:25;;;;;;;54.67;8.27;;;;;;;;;;5085648;28;20177;-73
2022/04/01 03:13:50;;;;;;;14.63;5.53;;;;;;;;;;5086011;28;20236;-72
2022/04/01 03:16:16;;;;;;;130.47;11.07;;;;;;;;;;5092572;28;20193;-72
2022/04/01 03:18:42;;;;;;;89.17;10.20;;;;;;;;;;5085842;28;20239;-72
2022/04/01 03:21:09;;;;;;;177.33;14.23;;;;;;;;;;5089316;28;20504;-73
2022/04/01 03:23:36;;;;;;;21.60;5.17;;;;;;;;;;5093578;28;20177;-72
2022/04/01 03:26:02;;;;;;;150.60;11.90;;;;;;;;;;5086784;28;20176;-72
2022/04/01 03:28:27;;;;;;;94.73;8.47;;;;;;;;;;5096435;28;20399;-72
2022/04/01 03:30:52;;;;;;;15.13;4.87;;;;;;;;;;5084216;28;20183;-72
2022/04/01 03:33:17;;;;;;;159.90;14.70;;;;;;;;;;5090460;28;20176;-72
2022/04/01 03:35:43;;;;;;;67.93;7.80;;;;;;;;;;5088859;28;20173;-72
2022/04/01 03:38:10;;;;;;;87.60;9.67;;;;;;;;;;5086384;28;20212;-72
2022/04/01 03:40:37;;;;;;;36.13;7.90;;;;;;;;;;5088783;28;20201;-72
2022/04/01 03:43:05;;;;;;;37.00;7.33;;;;;;;;;;5086902;28;20188;-72
2022/04/01 03:45:31;;;;;;;11.97;5.73;;;;;;;;;;5091897;28;20244;-72
2022/04/01 03:47:56;;;;;;;226.77;15.90;;;;;;;;;;5088919;28;20268;-72
2022/04/01 03:50:27;;;;;;;102.10;10.48;;;;;;;;;;5081741;28;20191;-72
2022/04/01 03:52:55;;;;;;;103.83;9.50;;;;;;;;;;5097712;28;20192;-72
2022/04/01 03:55:24;;;;;;;92.20;7.90;;;;;;;;;;5083381;28;20176;-72
2022/04/01 03:57:49;;;;;;;133.77;12.33;;;;;;;;;;5083611;28;20187;-72
2022/04/01 04:00:15;;;;;;;46.33;5.97;;;;;;;;;;5084151;28;20201;-72
2022/04/01 04:02:40;;;;;;;44.67;5.60;;;;;;;;;;5079009;28;20177;-72
2022/04/01 04:05:07;;;;;;;5.90;3.77;;;;;;;;;;5083406;28;20235;-72
2022/04/01 04:07:32;;;;;;;23.50;6.20;;;;;;;;;;5085354;28;20185;-72
2022/04/01 04:09:58;;;;;;;72.40;9.27;;;;;;;;;;5085972;28;20175;-72
2022/04/01 04:12:25;;;;;;;12.67;7.20;;;;;;;;;;5081283;28;20178;-73
2022/04/01 04:14:54;;;;;;;73.47;9.37;;;;;;;;;;5096126;28;20286;-72
2022/04/01 04:17:35;;;;;;;54.77;11.07;;;;;;;;;;5097293;28;20242;-73
2022/04/01 04:20:04;;;;;;;51.23;10.47;;;;;;;;;;5067958;28;20188;-72
2022/04/01 04:22:29;;;;;;;144.40;14.63;;;;;;;;;;5071714;28;20177;-72
2022/04/01 04:24:58;;;;;;;45.37;8.77;;;;;;;;;;5082110;28;20183;-72
2022/04/01 04:27:27;;;;;;;27.37;7.83;;;;;;;;;;5086021;28;20244;-72
2022/04/01 04:29:57;;;;;;;171.33;15.87;;;;;;;;;;5082290;28;20187;-72
2022/04/01 04:32:28;;;;;;;82.73;11.70;;;;;;;;;;5086149;28;20236;-72
2022/04/01 04:34:55;;;;;;;8.50;4.57;;;;;;;;;;5084160;28;20177;-72
2022/04/01 04:37:21;;;;;;;33.00;10.43;;;;;;;;;;5083643;28;20176;-73
2022/04/01 04:39:48;;;;;;;133.03;14.57;;;;;;;;;;5085101;28;20227;-72
2022/04/01 04:42:15;;;;;;;96.63;9.93;;;;;;;;;;5085848;28;20183;-72
2022/04/01 04:44:40;;;;;;;22.03;7.23;;;;;;;;;;5092984;28;20176;-73
2022/04/01 04:47:05;;;;;;;10.63;4.83;;;;;;;;;;5085909;28;20270;-72
2022/04/01 04:49:31;;;;;;;58.77;11.03;;;;;;;;;;5086532;28;20180;-72
2022/04/01 04:51:59;;;;;;;214.57;17.20;;;;;;;;;;5084389;28;20296;-72
2022/04/01 04:54:25;;;;;;;109.03;12.43;;;;;;;;;;5079902;28;20185;-72
2022/04/01 04:56:52;;;;;;;143.87;14.80;;;;;;;;;;5074648;28;20177;-73
2022/04/01 04:59:18;;;;;;;16.13;8.03;;;;;;;;;;5076255;28;20193;-73
2022/04/01 05:01:54;;;;;;;36.53;10.33;;;;;;;;;;5083809;28;20181;-74
2022/04/01 05:04:39;;;;;;;14.87;7.30;;;;;;;;;;5085201;28;20192;-73
2022/04/01 05:07:05;;;;;;;34.33;9.93;;;;;;;;;;5084712;28;20180;-73
2022/04/01 05:09:37;;;;;;;28.60;11.13;;;;;;;;;;5095058;28;20181;-73
2022/04/01 05:12:12;;;;;;;27.17;8.40;;;;;;;;;;5087753;28;20180;-73
2022/04/01 05:14:44;;;;;;;14.83;8.33;;;;;;;;;;5088031;28;20300;-73
2022/04/01 05:17:25;;;;;;;19.87;14.67;;;;;;;;;;5093660;28;20191;-73
2022/04/01 05:20:00;;;;;;;23.27;13.67;;;;;;;;;;5086705;28;20236;-73
2022/04/01 05:22:37;;;;;;;18.10;10.30;;;;;;;;;;5089914;28;20173;-73
2022/04/01 05:25:03;;;;;;;24.30;10.87;;;;;;;;;;5093742;28;20176;-73
2022/04/01 05:27:30;;;;;;;22.50;12.03;;;;;;;;;;5089086;28;20173;-73
2022/04/01 05:30:12;;;;;;;33.97;14.40;;;;;;;;;;5087234;28;20200;-73
2022/04/01 05:32:38;;;;;;;22.50;12.57;;;;;;;;;;5092763;28;20177;-73
2022/04/01 05:35:04;;;;;;;41.30;16.17;;;;;;;;;;5083716;28;20273;-73
2022/04/01 05:37:31;;;;;;;25.57;12.37;;;;;;;;;;5087722;28;20187;-73
2022/04/01 05:39:58;;;;;;;38.00;11.40;;;;;;;;;;5088270;28;20202;-73
2022/04/01 05:42:25;;;;;;;77.47;12.93;;;;;;;;;;5086997;28;20197;-73
2022/04/01 05:44:51;;;;;;;26.93;12.17;;;;;;;;;;5083379;28;20188;-73
2022/04/01 05:47:16;;;;;;;11.87;4.87;;;;;;;;;;5091559;28;20199;-73
2022/04/01 05:49:43;;;;;;;19.17;9.50;;;;;;;;;;5087492;28;20197;-74
2022/04/01 05:52:09;;;;;;;65.37;12.60;;;;;;;;;;5089111;28;20181;-73
2022/04/01 05:54:34;;;;;;;29.80;12.87;;;;;;;;;;5084385;28;20169;-73
2022/04/01 05:57:00;;;;;;;42.80;11.83;;;;;;;;;;5091097;28;20209;-73
2022/04/01 05:59:25;;;;;;;21.03;10.13;;;;;;;;;;5082263;28;20195;-73
2022/04/01 06:01:51;;;;;;;10.33;7.00;;;;;;;;;;5083917;28;20176;-73
2022/04/01 06:04:35;;;;;;;19.40;11.80;;;;;;;;;;5089134;28;20197;-73
2022/04/01 06:07:04;;;;;;;17.17;9.73;;;;;;;;;;5089170;28;20410;-73
2022/04/01 06:09:48;;;;;;;33.60;17.03;;;;;;;;;;5086828;28;20215;-73
2022/04/01 06:12:24;;;;;;;26.30;10.20;;;;;;;;;;5088024;28;20173;-73
2022/04/01 06:15:01;;;;;;;13.83;8.63;;;;;;;;;;5081059;28;20288;-73
2022/04/01 06:17:48;;;;;;;9.93;5.73;;;;;;;;;;5100784;28;20184;-73
2022/04/01 06:20:15;;;;;;;25.17;12.93;;;;;;;;;;5103423;28;20181;-73
2022/04/01 06:22:55;;;;;;;21.53;7.73;;;;;;;;;;5091483;28;20172;-73
2022/04/01 06:25:23;;;;;;;37.20;13.20;;;;;;;;;;5086181;28;20184;-73
2022/04/01 06:27:49;;;;;;;36.33;12.53;;;;;;;;;;5094434;28;20168;-73
2022/04/01 06:30:21;;;;;;;18.50;9.17;;;;;;;;;;5091128;28;20212;-73
2022/04/01 06:32:49;;;;;;;24.53;11.93;;;;;;;;;;5093123;28;20255;-73
2022/04/01 06:35:20;;;;;;;27.00;14.30;;;;;;;;;;5089464;28;20172;-73
2022/04/01 06:37:48;;;;;;;29.20;13.27;;;;;;;;;;5097378;28;20179;-73
2022/04/01 06:40:14;;;;;;;11.27;8.13;;;;;;;;;;5092237;28;20176;-73
2022/04/01 06:42:40;;;;;;;15.53;9.23;;;;;;;;;;5090221;28;20180;-73
2022/04/01 06:45:05;;;;;;;11.93;7.43;;;;;;;;;;5091691;28;20180;-73
2022/04/01 06:47:31;;;;;;;22.37;11.77;;;;;;;;;;5075724;28;20174;-73
2022/04/01 06:49:56;;;;;;;20.33;10.37;;;;;;;;;;5079154;28;20193;-73
2022/04/01 06:52:21;;;;;;;18.80;11.73;;;;;;;;;;5080612;28;20256;-74
2022/04/01 06:54:46;;;;;;;11.60;7.70;;;;;;;;;;5088884;28;20177;-73
2022/04/01 06:57:12;;;;;;;20.17;10.20;;;;;;;;;;5087628;28;20258;-73
2022/04/01 06:59:37;;;;;;;25.57;7.47;;;;;;;;;;5081476;28;20181;-73
2022/04/01 07:02:02;;;;;;;4.87;3.83;;;;;;;;;;5090342;28;20188;-74
2022/04/01 07:04:28;;;;;;;19.63;8.93;;;;;;;;;;5094270;28;20200;-73
2022/04/01 07:06:55;;;;;;;41.70;9.07;;;;;;;;;;5085924;28;20185;-73
2022/04/01 07:09:21;;;;;;;82.50;12.20;;;;;;;;;;5095871;28;20207;-73
2022/04/01 07:11:48;;;;;;;88.50;13.60;;;;;;;;;;5093166;28;20177;-73
2022/04/01 07:14:13;;;;;;;15.23;6.70;;;;;;;;;;5089663;28;20215;-73
2022/04/01 07:16:38;;;;;;;7.53;3.93;;;;;;;;;;5092169;28;20164;-73
2022/04/01 07:19:03;;;;;;;49.07;10.13;;;;;;;;;;5091794;28;20189;-73
2022/04/01 07:21:29;;;;;;;66.27;13.63;;;;;;;;;;5087293;28;20207;-73
2022/04/01 07:23:54;;;;;;;62.53;12.53;;;;;;;;;;5090560;28;20180;-73
2022/04/01 07:26:20;;;;;;;12.77;8.00;;;;;;;;;;5085795;28;20213;-73
2022/04/01 07:28:45;;;;;;;7.60;6.37;;;;;;;;;;5091504;28;20184;-73
2022/04/01 07:33:54;;;;;;;38.27;13.83;;;;;;;;;;5079276;28;20290;-73
2022/04/01 07:36:20;;;;;;;21.70;11.97;;;;;;;;;;5087569;28;20202;-73
2022/04/01 07:38:45;;;;;;;8.77;5.87;;;;;;;;;;5092442;28;20181;-73
2022/04/01 07:41:11;;;;;;;20.73;12.83;;;;;;;;;;5091572;28;20165;-73
2022/04/01 07:43:36;;;;;;;28.10;12.93;;;;;;;;;;5092994;28;20172;-73
2022/04/01 07:46:01;;;;;;;17.63;10.57;;;;;;;;;;5089267;28;20208;-73
2022/04/01 07:48:26;;;;;;;21.53;10.10;;;;;;;;;;5089198;28;20191;-72
2022/04/01 07:50:52;;;;;;;29.70;11.83;;;;;;;;;;5087363;28;20272;-72
2022/04/01 07:53:17;;;;;;;48.10;12.23;;;;;;;;;;5086194;28;20230;-73
2022/04/01 07:55:43;;;;;;;7.00;5.93;;;;;;;;;;5089526;28;20180;-73
2022/04/01 07:58:09;;;;;;;13.30;9.40;;;;;;;;;;5095268;28;20169;-72
2022/04/01 08:00:35;;;;;;;12.13;9.33;;;;;;;;;;5090255;28;20191;-72
2022/04/01 08:03:00;;;;;;;15.07;8.03;;;;;;;;;;5096258;28;20176;-72
2022/04/01 08:05:25;;;;;;;7.80;6.50;;;;;;;;;;5088247;28;20239;-72
2022/04/01 08:07:50;;;;;;;11.37;7.73;;;;;;;;;;5093803;28;20177;-73
2022/04/01 08:10:15;;;;;;;17.43;12.07;;;;;;;;;;5093514;28;20210;-73
2022/04/01 08:12:42;;;;;;;8.80;6.93;;;;;;;;;;5086780;28;20263;-73
2022/04/01 08:15:08;;;;;;;15.73;10.63;;;;;;;;;;5092176;28;20292;-73
2022/04/01 08:17:33;;;;;;;12.97;8.83;;;;;;;;;;5090922;28;20169;-73
2022/04/01 08:19:59;;;;;;;13.87;8.93;;;;;;;;;;5089183;28;21386;-73
2022/04/01 08:22:24;;;;;;;9.03;6.50;;;;;;;;;;5087173;28;20256;-72
2022/04/01 08:24:49;;;;;;;15.70;10.57;;;;;;;;;;5082036;28;20218;-73
2022/04/01 08:27:14;;;;;;;11.83;7.70;;;;;;;;;;5089997;28;20272;-72
2022/04/01 08:29:40;;;;;;;16.23;10.47;;;;;;;;;;5084465;28;20197;-73
2022/04/01 08:32:06;;;;;;;16.43;12.23;;;;;;;;;;5088802;28;20177;-73
2022/04/01 08:34:32;;;;;;;18.03;13.07;;;;;;;;;;5084686;28;20184;-73
2022/04/01 08:36:57;;;;;;;11.80;8.03;;;;;;;;;;5086616;28;20180;-75
2022/04/01 08:39:23;;;;;;;10.23;4.90;;;;;;;;;;5079081;28;20180;-75
2022/04/01 08:41:48;;;;;;;9.87;7.27;;;;;;;;;;5090504;28;20267;-74
2022/04/01 08:44:14;;;;;;;8.17;6.20;;;;;;;;;;5081487;28;20272;-74
2022/04/01 08:46:39;;;;;;;19.47;11.40;;;;;;;;;;5089282;28;20169;-75
2022/04/01 08:49:06;;;;;;;13.67;9.80;;;;;;;;;;5089685;28;20253;-74
2022/04/01 08:51:32;;;;;;;5.13;4.27;;;;;;;;;;5093795;28;20173;-74
2022/04/01 08:53:57;;;;;;;8.27;6.70;;;;;;;;;;5082350;28;20176;-75
2022/04/01 08:56:22;;;;;;;7.97;6.80;;;;;;;;;;5085884;28;20212;-74
2022/04/01 08:58:48;;;;;;;11.47;7.70;;;;;;;;;;5084930;28;20173;-75
2022/04/01 09:01:14;;;;;;;13.07;9.33;;;;;;;;;;5088949;28;20169;-75
2022/04/01 09:03:40;;;;;;;11.07;6.70;;;;;;;;;;5089919;28;20203;-74
2022/04/01 09:06:06;;;;;;;8.80;6.03;;;;;;;;;;5085792;28;20172;-74
2022/04/01 09:08:35;;;;;;;9.07;6.37;;;;;;;;;;5091931;28;20176;-72
2022/04/01 09:11:01;;;;;;;8.73;6.03;;;;;;;;;;5092694;28;20205;-73
2022/04/01 09:13:28;;;;;;;7.83;6.67;;;;;;;;;;5087664;28;20192;-72
2022/04/01 09:15:53;;;;;;;8.63;6.47;;;;;;;;;;5089019;28;20281;-73
2022/04/01 09:18:32;;;;;;;5.27;4.50;;;;;;;;;;5096429;28;20168;-73
2022/04/01 09:20:57;;;;;;;12.70;7.03;;;;;;;;;;5097577;28;20194;-72
2022/04/01 09:23:23;;;;;;;14.20;8.40;;;;;;;;;;5095109;28;20262;-73
2022/04/01 09:25:48;;;;;;;9.13;6.23;;;;;;;;;;5096283;28;20181;-73
2022/04/01 09:28:25;;;;;;;7.43;5.70;;;;;;;;;;5093627;28;20183;-73
2022/04/01 09:31:01;;;;;;;8.80;6.60;;;;;;;;;;5089143;28;20214;-73
2022/04/01 09:33:45;;;;;;;7.93;5.87;;;;;;;;;;5092235;28;20183;-73
2022/04/01 09:36:11;;;;;;;6.80;4.67;;;;;;;;;;5093902;28;20176;-73
2022/04/01 09:38:37;;;;;;;6.43;5.03;;;;;;;;;;5090228;28;20263;-73
2022/04/01 09:41:03;;;;;;;9.17;7.63;;;;;;;;;;5089052;28;20275;-75
2022/04/01 09:43:28;;;;;;;4.27;3.90;;;;;;;;;;5096251;28;20184;-75
2022/04/01 09:45:53;;;;;;;7.53;5.17;;;;;;;;;;5093149;28;20177;-75
2022/04/01 09:48:19;;;;;;;10.07;7.73;;;;;;;;;;5094267;28;20176;-75
2022/04/01 09:50:54;;;;;;;10.33;8.30;;;;;;;;;;5085705;28;20197;-75
2022/04/01 09:53:19;;;;;;;7.70;5.63;;;;;;;;;;5085941;28;20196;-75
2022/04/01 09:55:46;;;;;;;8.87;5.40;;;;;;;;;;5089581;28;20199;-75
2022/04/01 09:58:12;;;;;;;7.83;6.47;;;;;;;;;;5096355;28;20195;-75
2022/04/01 10:00:38;;;;;;;5.20;4.20;;;;;;;;;;5092318;28;20177;-75
2022/04/01 10:03:04;;;;;;;11.17;7.23;;;;;;;;;;5091452;28;20203;-75
2022/04/01 10:05:29;;;;;;;8.50;6.17;;;;;;;;;;5083019;28;20201;-75
2022/04/01 10:07:56;;;;;;;5.87;4.47;;;;;;;;;;5086726;28;20472;-75
2022/04/01 10:10:21;;;;;;;5.57;4.70;;;;;;;;;;5081085;28;20216;-75
2022/04/01 10:12:49;;;;;;;6.10;4.67;;;;;;;;;;5085778;28;20185;-74
2022/04/01 10:15:14;;;;;;;3.83;3.47;;;;;;;;;;5093013;28;20216;-75
2022/04/01 10:17:40;;;;;;;4.83;4.20;;;;;;;;;;5098269;28;20172;-75
2022/04/01 10:20:07;;;;;;;7.00;6.07;;;;;;;;;;5082985;28;20188;-75
2022/04/01 10:22:32;;;;;;;8.20;6.80;;;;;;;;;;5087373;28;20185;-75
2022/04/01 10:25:04;;;;;;;4.10;3.70;;;;;;;;;;5079406;28;20176;-75
2022/04/01 10:27:29;;;;;;;4.73;4.23;;;;;;;;;;5090778;28;20188;-75
2022/04/01 10:29:55;;;;;;;9.15;6.82;;;;;;;;;;5088118;28;20261;-75
2022/04/01 10:32:37;;;;;;;6.77;3.73;;;;;;;;;;5090913;28;20202;-75
2022/04/01 10:35:03;;;;;;;7.17;4.50;;;;;;;;;;5088053;28;20184;-75
2022/04/01 10:37:30;;;;;;;6.37;5.47;;;;;;;;;;5090673;28;20176;-75
2022/04/01 10:39:59;;;;;;;7.13;5.47;;;;;;;;;;5083124;28;20175;-75
2022/04/01 10:42:35;;;;;;;5.10;4.23;;;;;;;;;;5091327;28;20547;-75
2022/04/01 10:45:03;;;;;;;6.23;4.60;;;;;;;;;;5087099;28;20177;-75
2022/04/01 10:53:31;;;;;;;3.63;3.33;;;;;;;;;;5087786;28;20188;-75
2022/04/01 10:56:15;;;;;;;5.33;4.83;;;;;;;;;;5087465;28;20264;-75
2022/04/01 10:58:59;;;;;;;3.03;2.67;;;;;;;;;;5091613;28;20179;-75
2022/04/01 11:01:25;;;;;;;4.90;3.83;;;;;;;;;;5089018;28;20195;-75
2022/04/01 11:03:53;;;;;;;4.63;4.03;;;;;;;;;;5084849;28;20205;-75
2022/04/01 11:06:27;;;;;;;5.03;4.27;;;;;;;;;;5084205;28;20273;-75
2022/04/01 11:08:53;;;;;;;2.90;2.27;;;;;;;;;;5089160;28;20187;-75
2022/04/01 11:11:18;;;;;;;3.67;3.10;;;;;;;;;;5090843;28;20180;-75
2022/04/01 11:14:00;;;;;;;4.67;4.17;;;;;;;;;;5083563;28;20216;-75
2022/04/01 11:16:25;;;;;;;5.97;4.30;;;;;;;;;;5100057;28;20203;-75
2022/04/01 11:19:29;;;;;;;3.80;3.50;;;;;;;;;;5095869;28;20180;-75
2022/04/01 11:21:54;;;;;;;5.27;4.73;;;;;;;;;;5043412;28;20271;-74
2022/04/01 11:24:22;;;;;;;5.17;4.40;;;;;;;;;;5054146;28;20178;-75
2022/04/01 11:26:48;;;;;;;5.10;4.17;;;;;;;;;;5027953;28;20239;-75
2022/04/01 11:29:23;;;;;;;6.53;5.07;;;;;;;;;;5038638;28;20205;-75
2022/04/01 11:31:48;;;;;;;5.23;4.23;;;;;;;;;;5051854;28;20186;-75
2022/04/01 11:34:14;;;;;;;9.60;6.90;;;;;;;;;;5029157;28;20174;-75
2022/04/01 11:36:40;;;;;;;5.93;5.33;;;;;;;;;;5042053;28;20252;-75
2022/04/01 11:39:06;;;;;;;5.87;3.03;;;;;;;;;;5031093;28;20190;-74
2022/04/01 11:41:44;;;;;;;5.17;3.73;;;;;;;;;;5022160;28;20190;-74
2022/04/01 11:44:09;;;;;;;6.63;5.80;;;;;;;;;;5024606;28;20177;-75
2022/04/01 11:46:36;;;;;;;4.28;3.88;;;;;;;;;;5029137;28;20190;-74
2022/04/01 11:49:01;;;;;;;6.50;5.57;;;;;;;;;;5046861;28;20248;-74
2022/04/01 11:51:27;;;;;;;3.90;3.17;;;;;;;;;;5042298;28;20189;-74
2022/04/01 11:53:53;;;;;;;4.37;3.97;;;;;;;;;;5085510;28;20180;-74
2022/04/01 11:56:20;;;;;;;7.43;6.07;;;;;;;;;;5097623;28;20237;-74
2022/04/01 11:59:02;;;;;;;10.40;8.53;;;;;;;;;;5088160;28;20176;-74
2022/04/01 12:01:31;;;;;;;7.30;6.60;;;;;;;;;;5087245;28;21840;-74
2022/04/01 12:04:05;;;;;;;8.10;6.93;;;;;;;;;;5083599;28;20196;-74
2022/04/01 12:09:14;;;;;;;7.40;6.37;;;;;;;;;;5087668;28;20200;-73
2022/04/01 12:11:40;;;;;;;6.00;4.27;;;;;;;;;;5084732;28;20170;-74
2022/04/01 12:14:06;;;;;;;10.00;8.90;;;;;;;;;;5087802;28;20442;-74
2022/04/01 12:16:31;;;;;;;6.53;5.73;;;;;;;;;;5084795;28;20184;-74
2022/04/01 12:18:57;;;;;;;10.18;8.90;;;;;;;;;;5078871;28;20185;-74
2022/04/01 12:21:23;;;;;;;7.50;5.43;;;;;;;;;;5088000;28;20176;-74
2022/04/01 12:23:49;;;;;;;7.43;6.67;;;;;;;;;;5087975;28;20187;-74
2022/04/01 12:26:15;;;;;;;6.10;5.43;;;;;;;;;;5087017;28;20198;-74
2022/04/01 12:28:42;;;;;;;6.57;5.63;;;;;;;;;;5085783;28;20172;-74
2022/04/01 12:31:16;;;;;;;9.13;8.00;;;;;;;;;;5089122;28;20244;-74
2022/04/01 12:33:44;;;;;;;8.37;7.00;;;;;;;;;;5088162;28;20326;-74
2022/04/01 12:36:10;;;;;;;5.60;4.87;;;;;;;;;;5084930;28;21418;-74
2022/04/01 12:38:36;;;;;;;5.50;3.90;;;;;;;;;;5080773;28;20265;-74
2022/04/01 12:41:03;;;;;;;11.27;8.17;;;;;;;;;;5083657;28;20181;-74
2022/04/01 12:43:33;;;;;;;9.57;8.57;;;;;;;;;;5085565;28;20184;-74
2022/04/01 12:46:03;;;;;;;4.17;3.83;;;;;;;;;;5082166;28;20222;-74
2022/04/01 12:48:28;;;;;;;6.57;3.90;;;;;;;;;;5088992;28;20239;-74
2022/04/01 12:50:58;;;;;;;7.43;5.67;;;;;;;;;;5081578;28;20220;-74
2022/04/01 12:53:23;;;;;;;6.33;5.57;;;;;;;;;;5081912;28;20169;-74
2022/04/01 12:55:49;;;;;;;11.13;10.00;;;;;;;;;;5088007;28;20195;-74
2022/04/01 12:58:14;;;;;;;10.10;9.10;;;;;;;;;;5086637;28;20257;-74
2022/04/01 13:00:39;;;;;;;4.07;3.33;;;;;;;;;;5088087;28;20189;-74
2022/04/01 13:03:05;;;;;;;7.13;6.43;;;;;;;;;;5088344;28;20255;-73
2022/04/01 13:05:30;;;;;;;7.00;6.30;;;;;;;;;;5089293;28;20223;-74
2022/04/01 13:07:55;;;;;;;8.50;7.10;;;;;;;;;;5087862;28;20210;-74
2022/04/01 13:10:23;;;;;;;7.17;6.47;;;;;;;;;;5090341;28;20199;-74
2022/04/01 13:12:48;;;;;;;9.40;8.33;;;;;;;;;;5088881;28;20177;-74
2022/04/01 13:15:15;;;;;;;8.57;6.05;;;;;;;;;;5092814;28;20217;-74
2022/04/01 13:17:44;;;;;;;7.83;6.40;;;;;;;;;;5090655;28;20187;-74
2022/04/01 13:20:11;;;;;;;6.80;5.93;;;;;;;;;;5094226;28;20172;-73
2022/04/01 13:22:37;;;;;;;7.07;4.97;;;;;;;;;;5088871;28;20191;-74
2022/04/01 13:25:03;;;;;;;4.77;4.27;;;;;;;;;;5088513;28;20263;-74
2022/04/01 13:27:28;;;;;;;5.07;4.60;;;;;;;;;;5086898;28;20181;-74
2022/04/01 13:29:54;;;;;;;6.53;5.90;;;;;;;;;;5089628;28;20204;-74
2022/04/01 13:32:19;;;;;;;7.30;6.30;;;;;;;;;;5085255;28;20181;-73
2022/04/01 13:34:45;;;;;;;7.87;5.70;;;;;;;;;;5087383;28;20180;-74
2022/04/01 13:37:11;;;;;;;8.03;7.20;;;;;;;;;;5087862;28;20177;-74
2022/04/01 13:39:36;;;;;;;7.60;6.53;;;;;;;;;;5086257;28;20188;-74
2022/04/01 13:42:03;;;;;;;6.17;4.50;;;;;;;;;;5087090;28;20176;-74
2022/04/01 13:44:28;;;;;;;5.87;5.13;;;;;;;;;;5087748;28;20276;-74
2022/04/01 13:46:54;;;;;;;5.93;5.33;;;;;;;;;;5088748;28;21689;-74
2022/04/01 13:49:20;;;;;;;7.70;6.90;;;;;;;;;;5088468;28;20200;-73
2022/04/01 13:51:45;;;;;;;6.47;5.87;;;;;;;;;;5087851;28;20178;-74
2022/04/01 13:54:11;;;;;;;4.83;4.40;;;;;;;;;;5089637;28;20245;-74
2022/04/01 13:56:36;;;;;;;7.90;7.20;;;;;;;;;;5084757;28;20177;-74
2022/04/01 13:59:01;;;;;;;4.90;4.03;;;;;;;;;;5089324;28;20263;-74
2022/04/01 14:01:27;;;;;;;6.73;6.03;;;;;;;;;;5092006;28;20176;-73
2022/04/01 14:03:52;;;;;;;7.33;6.10;;;;;;;;;;5088431;28;20216;-74
2022/04/01 14:06:17;;;;;;;7.23;6.23;;;;;;;;;;5081988;28;20174;-74
2022/04/01 14:08:43;;;;;;;5.60;5.10;;;;;;;;;;5084161;28;20185;-73
2022/04/01 14:11:09;;;;;;;5.77;5.17;;;;;;;;;;5090105;28;20208;-74
2022/04/01 14:13:34;;;;;;;6.43;5.63;;;;;;;;;;5085442;28;20211;-74
2022/04/01 14:16:00;;;;;;;3.83;2.93;;;;;;;;;;5087507;28;20217;-74
2022/04/01 14:18:25;;;;;;;9.57;7.70;;;;;;;;;;5077646;28;20229;-74
2022/04/01 14:20:52;;;;;;;9.07;7.83;;;;;;;;;;5077170;28;20212;-74
2022/04/01 14:23:18;;;;;;;4.40;3.67;;;;;;;;;;5084977;28;20267;-74
2022/04/01 14:25:47;;;;;;;6.07;5.43;;;;;;;;;;5093264;28;20265;-74
2022/04/01 14:28:13;;;;;;;3.83;3.53;;;;;;;;;;5096545;28;20176;-74
2022/04/01 14:30:38;;;;;;;3.17;2.87;;;;;;;;;;5079090;28;20234;-74
2022/04/01 14:33:03;;;;;;;3.03;2.73;;;;;;;;;;5089598;28;20173;-74
2022/04/01 14:35:30;;;;;;;5.93;5.33;;;;;;;;;;5086644;28;20230;-74
2022/04/01 14:37:57;;;;;;;5.70;3.77;;;;;;;;;;5082830;28;20177;-74
2022/04/01 14:40:22;;;;;;;6.43;5.80;;;;;;;;;;5086312;28;20189;-74
2022/04/01 14:42:47;;;;;;;6.13;5.00;;;;;;;;;;5083295;27;20173;-74
2022/04/01 14:45:13;;;;;;;5.23;3.73;;;;;;;;;;5085197;28;20199;-74
2022/04/01 14:47:39;;;;;;;2.53;2.33;;;;;;;;;;5081078;28;20210;-74